Time;durP1;ratioP1;P1;durP2;ratioP2;P2;SDS_P1;SDS_P2;PMS_P1;PMS_P2;Temp;Humidity;BMP_temperature;BMP_pressure;BME280_temperature;BME280_humidity;BME280_pressure;Samples;Min_cycle;Max_cycle;Signal;HPM_P1;HPM_P2
2023/02/11 00:00:14;;;;;;;6.25;5.10;;;15.40;66.30;;;;;;10490341;28;20364;-57
2023/02/11 00:05:15;;;;;;;9.48;5.88;;;15.30;66.20;;;;;;10471004;28;20021;-59
2023/02/11 00:10:15;;;;;;;7.22;5.13;;;15.30;66.40;;;;;;10471481;28;20025;-57
2023/02/11 00:15:16;;;;;;;5.63;4.93;;;15.30;66.20;;;;;;10489449;28;20027;-59
2023/02/11 00:20:17;;;;;;;6.90;5.10;;;15.30;66.20;;;;;;10453867;28;20021;-59
2023/02/11 00:25:17;;;;;;;8.30;5.63;;;15.30;66.40;;;;;;10470885;28;20673;-59
2023/02/11 00:30:18;;;;;;;8.63;5.15;;;15.20;66.30;;;;;;10469871;28;20055;-59
2023/02/11 00:35:19;;;;;;;6.57;4.82;;;15.20;66.30;;;;;;10487913;28;20460;-59
2023/02/11 00:40:20;;;;;;;8.55;5.47;;;15.20;66.40;;;;;;10453481;28;20063;-58
2023/02/11 00:45:21;;;;;;;7.68;5.00;;;15.20;66.30;;;;;;10469984;28;20028;-59
2023/02/11 00:50:22;;;;;;;7.13;4.30;;;15.20;66.40;;;;;;10488344;28;20485;-55
2023/02/11 00:55:23;;;;;;;9.60;4.90;;;15.10;66.30;;;;;;10440145;28;20111;-57
2023/02/11 01:00:23;;;;;;;7.30;5.03;;;15.10;66.30;;;;;;10487968;28;20372;-59
2023/02/11 01:05:24;;;;;;;5.97;4.38;;;15.10;66.20;;;;;;10469421;28;20017;-59
2023/02/11 01:10:25;;;;;;;7.47;5.28;;;15.10;66.30;;;;;;10469503;28;20025;-59
2023/02/11 01:15:26;;;;;;;6.70;4.63;;;15.10;66.20;;;;;;10469620;28;20125;-58
2023/02/11 01:20:28;;;;;;;6.78;4.50;;;15.10;66.20;;;;;;10487506;28;20028;-59
2023/02/11 01:25:29;;;;;;;7.32;4.00;;;15.00;66.10;;;;;;10469647;28;20025;-58
2023/02/11 01:30:29;;;;;;;6.63;4.18;;;15.10;66.30;;;;;;10469046;28;20090;-59
2023/02/11 01:35:30;;;;;;;8.73;4.30;;;15.00;66.10;;;;;;10452050;28;20024;-57
2023/02/11 01:40:31;;;;;;;6.65;4.78;;;15.00;66.20;;;;;;10469499;28;20021;-59
2023/02/11 01:45:56;;;;;;;6.30;4.07;;;15.00;66.20;;;;;;10477282;28;20035;-59
2023/02/11 01:51:07;;;;;;;5.13;3.78;;;15.00;66.20;;;;;;10477706;28;20079;-58
2023/02/11 02:01:33;;;;;;;6.20;3.83;;;15.00;65.80;;;;;;10480064;28;20040;-59
2023/02/11 02:06:46;;;;;;;5.32;4.15;;;15.00;65.80;;;;;;10476669;28;20028;-57
2023/02/11 02:11:47;;;;;;;5.45;4.70;;;15.00;65.90;;;;;;10477259;28;20035;-58
2023/02/11 02:16:48;;;;;;;5.78;4.13;;;14.90;65.80;;;;;;10494232;28;20048;-57
2023/02/11 02:22:52;;;;;;;5.85;3.95;;;14.90;65.70;;;;;;10475893;28;20464;-59
2023/02/11 02:28:51;;;;;;;5.97;3.78;;;15.00;65.90;;;;;;10453564;28;20036;-58
2023/02/11 02:34:41;;;;;;;7.05;3.88;;;14.90;66.00;;;;;;10475505;28;20035;-59
2023/02/11 02:39:44;;;;;;;5.63;3.40;;;14.90;66.00;;;;;;10467615;28;20039;-58
2023/02/11 02:44:50;;;;;;;7.13;4.18;;;14.90;66.10;;;;;;10475635;28;20479;-57
2023/02/11 02:49:51;;;;;;;5.80;3.67;;;14.90;66.00;;;;;;10475652;28;20094;-59
2023/02/11 02:56:01;;;;;;;5.03;2.95;;;14.80;65.90;;;;;;10474538;28;20081;-58
2023/02/11 03:01:33;;;;;;;6.55;3.40;;;14.80;66.10;;;;;;10276572;28;20035;-57
2023/02/11 03:07:04;;;;;;;4.82;3.03;;;14.80;66.10;;;;;;10470460;28;20039;-58
2023/02/11 03:12:05;;;;;;;;;;;14.80;66.30;;;;;;10475169;28;20064;-59
2023/02/11 03:17:08;;;;;;;4.78;3.50;;;14.80;66.30;;;;;;10488924;28;19904;-59
2023/02/11 03:22:33;;;;;;;4.35;3.10;;;14.80;66.20;;;;;;10464364;28;20016;-58
2023/02/11 03:27:50;;;;;;;4.70;3.15;;;14.80;66.30;;;;;;10457659;28;20151;-58
2023/02/11 03:33:05;;;;;;;4.85;2.92;;;14.80;66.40;;;;;;10474328;28;20032;-59
2023/02/11 03:38:20;;;;;;;4.55;3.05;;;14.70;66.30;;;;;;10473755;28;20036;-59
2023/02/11 03:43:34;;;;;;;4.93;2.65;;;14.70;66.30;;;;;;10456358;28;20137;-59
2023/02/11 03:49:05;;;;;;;6.50;3.38;;;14.70;66.30;;;;;;10453867;28;20060;-57
2023/02/11 03:54:12;;;;;;;5.15;2.90;;;14.70;65.90;;;;;;10483436;28;20040;-59
2023/02/11 03:59:13;;;;;;;3.65;2.65;;;14.80;66.40;;;;;;10455801;28;20024;-59
2023/02/11 04:04:13;;;;;;;4.55;2.53;;;15.00;65.20;;;;;;10488887;28;20439;-55
2023/02/11 04:09:14;;;;;;;5.32;3.08;;;15.20;64.50;;;;;;10471583;28;20033;-57
2023/02/11 04:14:15;;;;;;;5.32;2.65;;;15.50;64.50;;;;;;10471827;28;20100;-59
2023/02/11 04:19:15;;;;;;;4.78;3.13;;;15.70;63.30;;;;;;10489319;28;20095;-56
2023/02/11 04:24:16;;;;;;;5.38;2.80;;;15.80;62.70;;;;;;10471173;28;20044;-59
2023/02/11 04:29:17;;;;;;;4.88;2.97;;;16.10;62.10;;;;;;10453636;28;20059;-58
2023/02/11 04:34:18;;;;;;;4.63;2.13;;;16.40;61.40;;;;;;10471122;28;20478;-56
2023/02/11 04:39:19;;;;;;;4.45;2.40;;;16.50;60.90;;;;;;10470612;28;20027;-58
2023/02/11 04:44:19;;;;;;;4.45;2.58;;;16.60;60.90;;;;;;10483929;28;20094;-58
2023/02/11 04:49:20;;;;;;;3.75;2.08;;;16.60;61.20;;;;;;10478085;28;20047;-58
2023/02/11 04:54:21;;;;;;;5.10;1.83;;;16.70;60.70;;;;;;10505827;28;20016;-59
2023/02/11 04:59:22;;;;;;;5.72;2.10;;;16.80;60.50;;;;;;10487330;28;20013;-59
2023/02/11 05:04:22;;;;;;;5.22;2.42;;;16.80;60.40;;;;;;10470549;28;20023;-58
2023/02/11 05:09:23;;;;;;;5.00;2.33;;;16.90;60.40;;;;;;10486821;28;20023;-57
2023/02/11 05:14:24;;;;;;;4.07;2.53;;;16.90;60.30;;;;;;10463979;28;20036;-58
2023/02/11 05:19:24;;;;;;;3.83;2.47;;;16.90;60.20;;;;;;10468357;28;20134;-57
2023/02/11 05:24:25;;;;;;;4.15;2.15;;;17.00;60.20;;;;;;10504177;28;20030;-54
2023/02/11 05:29:26;;;;;;;3.38;2.03;;;16.90;60.20;;;;;;10486505;28;20394;-58
2023/02/11 05:34:27;;;;;;;3.58;2.17;;;17.00;60.20;;;;;;10484516;28;20094;-59
2023/02/11 05:39:28;;;;;;;3.13;1.80;;;16.90;60.30;;;;;;10508749;28;20349;-57
2023/02/11 05:44:28;;;;;;;3.53;2.08;;;16.90;60.50;;;;;;10469804;28;20123;-58
2023/02/11 05:49:29;;;;;;;2.85;2.13;;;16.90;60.70;;;;;;10486812;28;20116;-58
2023/02/11 05:54:30;;;;;;;3.80;1.85;;;16.70;61.10;;;;;;10469271;28;20396;-58
2023/02/11 05:59:30;;;;;;;4.22;2.47;;;16.60;61.40;;;;;;10486958;28;20021;-59
2023/02/11 06:04:31;;;;;;;4.53;1.98;;;16.60;61.60;;;;;;10469736;28;20107;-58
2023/02/11 06:09:32;;;;;;;4.60;1.90;;;16.60;61.50;;;;;;10477087;28;20032;-56
2023/02/11 06:14:33;;;;;;;4.90;2.20;;;16.50;62.10;;;;;;10465264;28;20506;-57
2023/02/11 06:19:34;;;;;;;5.93;2.30;;;16.50;62.60;;;;;;10464496;28;20466;-57
2023/02/11 06:24:35;;;;;;;7.72;3.15;;;16.60;62.80;;;;;;10465613;28;20073;-58
2023/02/11 06:29:36;;;;;;;7.03;2.58;;;16.70;62.80;;;;;;10487852;28;20053;-59
2023/02/11 06:34:37;;;;;;;8.13;3.22;;;16.80;63.60;;;;;;10455125;28;20096;-58
2023/02/11 06:39:38;;;;;;;10.43;2.95;;;16.80;63.70;;;;;;10471517;28;20025;-59
2023/02/11 06:44:39;;;;;;;23.77;3.92;;;16.70;63.70;;;;;;10448839;28;20028;-60
2023/02/11 06:49:40;;;;;;;24.70;4.10;;;16.70;64.10;;;;;;10474696;28;20119;-59
2023/02/11 06:54:40;;;;;;;28.05;6.00;;;16.60;64.40;;;;;;10474199;28;20432;-58
2023/02/11 06:59:41;;;;;;;45.92;8.52;;;16.60;64.30;;;;;;10491026;28;20096;-58
2023/02/11 07:04:42;;;;;;;37.60;7.80;;;16.40;65.40;;;;;;10477622;28;20027;-60
2023/02/11 07:09:43;;;;;;;31.90;7.25;;;16.50;66.00;;;;;;10457411;28;20056;-59
2023/02/11 07:14:44;;;;;;;28.75;7.78;;;16.50;64.60;;;;;;10490274;28;20103;-58
2023/02/11 07:19:44;;;;;;;24.88;7.50;;;16.40;64.90;;;;;;10475148;28;20043;-58
2023/02/11 07:24:45;;;;;;;35.42;7.90;;;16.20;65.20;;;;;;10491088;28;20052;-59
2023/02/11 07:29:47;;;;;;;26.23;7.70;;;16.10;65.90;;;;;;10429793;28;20037;-58
2023/02/11 07:34:48;;;;;;;22.15;6.40;;;16.00;67.50;;;;;;10473904;28;20021;-59
2023/02/11 07:39:48;;;;;;;30.33;8.18;;;15.90;70.80;;;;;;10489907;28;20048;-58
2023/02/11 07:44:50;;;;;;;38.05;7.93;;;16.00;69.30;;;;;;10472785;28;20048;-57
2023/02/11 07:49:50;;;;;;;22.92;7.38;;;15.90;68.90;;;;;;10489273;28;20123;-56
2023/02/11 07:54:51;;;;;;;25.45;8.32;;;16.00;68.90;;;;;;10489741;28;20462;-56
2023/02/11 07:59:52;;;;;;;29.20;7.63;;;16.00;68.60;;;;;;10486793;28;20108;-55
2023/02/11 08:04:53;;;;;;;25.27;7.25;;;15.90;68.30;;;;;;10467047;28;20027;-54
2023/02/11 08:09:54;;;;;;;23.58;6.43;;;15.90;68.00;;;;;;10467835;28;20067;-54
2023/02/11 08:14:55;;;;;;;25.05;7.13;;;15.90;67.90;;;;;;10468958;28;20108;-55
2023/02/11 08:19:56;;;;;;;16.52;5.88;;;15.80;67.40;;;;;;10483847;28;20020;-57
2023/02/11 08:24:57;;;;;;;19.65;6.75;;;15.80;66.90;;;;;;10485846;28;20100;-57
2023/02/11 08:29:59;;;;;;;23.10;6.85;;;15.90;67.10;;;;;;10442949;28;20040;-56
2023/02/11 08:35:00;;;;;;;18.50;5.70;;;16.00;67.30;;;;;;10468755;28;20044;-56
2023/02/11 08:40:00;;;;;;;24.33;5.70;;;16.10;67.20;;;;;;10468497;28;20488;-55
2023/02/11 08:45:01;;;;;;;22.50;6.03;;;16.20;67.10;;;;;;10454879;28;20119;-57
2023/02/11 08:50:03;;;;;;;16.92;6.47;;;16.30;66.90;;;;;;10485625;28;20025;-57
2023/02/11 08:55:04;;;;;;;21.40;7.35;;;16.30;66.60;;;;;;10485723;28;20028;-59
2023/02/11 09:00:05;;;;;;;16.70;5.53;;;16.50;66.70;;;;;;10466163;28;20025;-55
2023/02/11 09:05:07;;;;;;;18.98;6.35;;;16.60;66.60;;;;;;10451263;28;20016;-58
2023/02/11 09:10:08;;;;;;;21.08;6.53;;;16.60;66.40;;;;;;10438644;28;20563;-56
2023/02/11 09:15:08;;;;;;;21.52;6.70;;;16.70;67.00;;;;;;10467625;28;20030;-58
2023/02/11 09:20:10;;;;;;;23.55;6.88;;;16.70;66.60;;;;;;10485876;28;20035;-56
2023/02/11 09:25:11;;;;;;;24.02;7.93;;;16.70;66.60;;;;;;10484588;28;20029;-57
2023/02/11 09:30:12;;;;;;;23.92;8.32;;;16.70;67.70;;;;;;10463641;28;20040;-57
2023/02/11 09:35:12;;;;;;;18.38;7.47;;;16.70;67.00;;;;;;10466507;28;20021;-55
2023/02/11 09:40:14;;;;;;;22.23;6.03;;;16.80;67.30;;;;;;10484296;28;20073;-55
2023/02/11 09:45:27;;;;;;;15.80;6.47;;;16.70;67.30;;;;;;10483599;28;20082;-55
2023/02/11 09:50:41;;;;;;;12.07;5.97;;;16.70;67.20;;;;;;10466280;28;20040;-54
2023/02/11 09:55:46;;;;;;;16.05;6.40;;;16.70;67.60;;;;;;10464540;28;20025;-55
2023/02/11 10:01:22;;;;;;;16.25;8.40;;;16.70;67.80;;;;;;10438541;28;20017;-54
2023/02/11 10:07:16;;;;;;;12.13;6.18;;;16.60;68.30;;;;;;10475424;28;20024;-67
2023/02/11 10:12:33;;;;;;;19.40;7.80;;;16.70;67.60;;;;;;10492527;28;20035;-57
2023/02/11 10:18:05;;;;;;;13.13;6.30;;;16.60;67.90;;;;;;10458707;28;20483;-56
2023/02/11 10:23:23;;;;;;;14.05;7.00;;;16.50;68.80;;;;;;10492059;28;20372;-59
2023/02/11 10:28:32;;;;;;;17.75;6.38;;;16.30;68.40;;;;;;10476414;28;20127;-59
2023/02/11 10:33:51;;;;;;;24.67;7.63;;;16.20;69.10;;;;;;10476152;28;20032;-59
2023/02/11 10:38:52;;;;;;;16.33;7.23;;;16.20;68.80;;;;;;10446279;28;20115;-57
2023/02/11 10:43:53;;;;;;;23.95;6.90;;;16.10;69.10;;;;;;10486561;28;20058;-57
2023/02/11 10:48:53;;;;;;;15.07;6.70;;;16.10;69.40;;;;;;10469179;28;20268;-57
2023/02/11 10:54:03;;;;;;;14.60;5.57;;;16.00;69.10;;;;;;10471444;28;20111;-57
2023/02/11 10:59:18;;;;;;;12.07;5.78;;;16.00;69.10;;;;;;10472083;28;20020;-55
2023/02/11 11:04:38;;;;;;;20.70;5.78;;;16.10;69.10;;;;;;10472717;28;20472;-56
2023/02/11 11:09:58;;;;;;;25.83;6.97;;;16.20;69.00;;;;;;10472757;28;20337;-57
2023/02/11 11:15:17;;;;;;;;;;;16.20;70.50;;;;;;10473065;28;20465;-57
2023/02/11 11:20:27;;;;;;;44.80;10.88;;;16.20;71.70;;;;;;10460669;28;19904;-57
2023/02/11 11:25:29;;;;;;;19.70;6.10;;;16.40;73.30;;;;;;10471653;28;20031;-56
2023/02/11 11:30:41;;;;;;;21.02;6.72;;;16.60;72.30;;;;;;10471219;28;20044;-59
2023/02/11 11:35:42;;;;;;;15.52;6.40;;;16.50;72.30;;;;;;10471198;28;20120;-58
2023/02/11 11:40:42;;;;;;;15.70;5.35;;;16.40;72.60;;;;;;10470330;28;20017;-58
2023/02/11 11:45:56;;;;;;;9.52;4.97;;;16.40;72.90;;;;;;10488542;28;20125;-58
2023/02/11 11:51:08;;;;;;;17.33;5.55;;;16.40;72.20;;;;;;10470756;28;20028;-57
2023/02/11 11:56:29;;;;;;;11.73;5.05;;;16.30;72.30;;;;;;10470702;28;20043;-56
2023/02/11 12:01:48;;;;;;;15.93;5.68;;;16.40;72.30;;;;;;10470411;28;20029;-57
2023/02/11 12:07:28;;;;;;;16.05;6.00;;;16.40;71.80;;;;;;10487835;28;20053;-58
2023/02/11 12:12:54;;;;;;;14.07;5.10;;;16.40;71.40;;;;;;10484497;28;20119;-57
2023/02/11 12:18:37;;;;;;;14.38;4.68;;;16.40;71.20;;;;;;10466457;28;20013;-57
2023/02/11 12:24:44;;;;;;;16.38;5.80;;;16.30;72.20;;;;;;10463722;28;20031;-56
2023/02/11 12:30:05;;;;;;;10.70;4.65;;;16.30;72.20;;;;;;10463711;28;20101;-56
2023/02/11 12:35:35;;;;;;;17.70;5.10;;;16.30;71.70;;;;;;10452480;28;20066;-59
2023/02/11 12:41:03;;;;;;;17.70;5.38;;;16.50;71.80;;;;;;10486676;28;20046;-58
2023/02/11 12:46:40;;;;;;;11.75;4.53;;;16.50;71.10;;;;;;10453178;28;20484;-57
2023/02/11 12:52:08;;;;;;;25.98;6.60;;;16.40;71.30;;;;;;10463154;28;20395;-57
2023/02/11 12:57:25;;;;;;;13.05;4.80;;;16.50;71.10;;;;;;10448186;28;20162;-55
2023/02/11 13:02:44;;;;;;;11.13;4.43;;;16.40;71.10;;;;;;10482425;28;20263;-57
2023/02/11 13:07:46;;;;;;;15.07;4.38;;;16.40;71.00;;;;;;10463118;28;20055;-57
2023/02/11 13:18:50;;;;;;;10.95;5.13;;;16.20;71.10;;;;;;10470550;28;20032;-55
2023/02/11 13:24:26;;;;;;;20.90;5.55;;;16.10;71.20;;;;;;10466968;28;20660;-58
2023/02/11 13:29:57;;;;;;;22.38;5.05;;;16.00;70.50;;;;;;10446096;28;20052;-58
2023/02/11 13:34:57;;;;;;;20.73;5.18;;;15.90;71.10;;;;;;10481896;28;20033;-57
2023/02/11 13:40:20;;;;;;;18.83;4.45;;;15.80;71.10;;;;;;10472963;28;20685;-58
2023/02/11 13:45:45;;;;;;;15.35;4.38;;;15.80;71.20;;;;;;10470944;28;20032;-58
2023/02/11 13:50:49;;;;;;;15.95;6.88;;;15.80;70.90;;;;;;10497105;28;20560;-57
2023/02/11 13:56:06;;;;;;;11.50;4.85;;;15.70;70.80;;;;;;10473806;28;20047;-54
2023/02/11 14:01:07;;;;;;;17.20;4.68;;;15.70;70.80;;;;;;10474381;28;20086;-54
2023/02/11 14:11:33;;;;;;;10.47;3.53;;;15.60;70.30;;;;;;10494060;28;20048;-57
2023/02/11 14:16:35;;;;;;;13.20;4.38;;;15.60;70.50;;;;;;10492090;28;20469;-56
2023/02/11 14:21:40;;;;;;;8.68;4.60;;;15.60;70.40;;;;;;10473763;28;20099;-57
2023/02/11 14:26:57;;;;;;;9.98;3.67;;;15.60;70.20;;;;;;10473920;28;20032;-56
2023/02/11 14:32:30;;;;;;;8.30;4.10;;;15.70;70.00;;;;;;10491217;28;20041;-56
2023/02/11 14:37:51;;;;;;;9.65;3.78;;;15.70;70.00;;;;;;10475744;28;20048;-56
2023/02/11 14:42:54;;;;;;;8.40;3.95;;;15.60;70.00;;;;;;10473219;28;20078;-57
2023/02/11 14:48:04;;;;;;;7.60;3.55;;;15.70;70.00;;;;;;10472732;28;20387;-58
2023/02/11 14:53:11;;;;;;;6.60;3.10;;;15.70;69.60;;;;;;10496007;28;20068;-59
2023/02/11 14:58:16;;;;;;;9.10;4.03;;;15.80;69.30;;;;;;10473291;28;20069;-57
2023/02/11 15:03:32;;;;;;;5.15;3.88;;;15.80;69.20;;;;;;10490582;28;20032;-57
2023/02/11 15:08:40;;;;;;;6.15;3.75;;;15.80;69.00;;;;;;10501459;28;20090;-58
2023/02/11 15:13:48;;;;;;;7.57;3.73;;;15.80;68.90;;;;;;10472298;28;20028;-55
2023/02/11 15:18:57;;;;;;;10.63;3.50;;;15.80;68.80;;;;;;10472613;28;20520;-57
2023/02/11 15:24:01;;;;;;;6.00;3.00;;;15.90;68.60;;;;;;10489400;28;20029;-59
2023/02/11 15:29:02;;;;;;;4.88;2.70;;;15.90;68.50;;;;;;10471298;28;20139;-59
2023/02/11 15:34:07;;;;;;;7.00;3.10;;;15.90;68.60;;;;;;10440580;28;20487;-58
2023/02/11 15:39:31;;;;;;;8.15;2.47;;;15.90;68.60;;;;;;10471054;28;20020;-58
2023/02/11 15:44:32;;;;;;;7.60;3.63;;;15.90;68.70;;;;;;10445767;28;20032;-58
2023/02/11 15:49:33;;;;;;;7.30;3.72;;;15.90;68.50;;;;;;10472043;28;20591;-55
2023/02/11 15:54:33;;;;;;;4.57;2.60;;;15.90;68.40;;;;;;10472057;28;20029;-58
2023/02/11 15:59:39;;;;;;;3.50;2.40;;;15.90;68.40;;;;;;10471304;28;20460;-59
2023/02/11 16:04:53;;;;;;;4.50;1.95;;;15.80;68.50;;;;;;10489801;28;20020;-59
2023/02/11 16:09:57;;;;;;;3.75;2.10;;;15.90;68.50;;;;;;10455202;28;20020;-58
2023/02/11 16:14:59;;;;;;;3.33;2.33;;;15.90;68.00;;;;;;10448726;28;20108;-58
2023/02/11 16:19:59;;;;;;;5.10;2.45;;;15.90;67.80;;;;;;10471469;28;20021;-58
2023/02/11 16:25:01;;;;;;;6.00;2.83;;;16.00;67.90;;;;;;10470050;28;20027;-56
2023/02/11 16:30:02;;;;;;;4.72;2.00;;;15.90;67.90;;;;;;10468859;28;20040;-58
2023/02/11 16:35:09;;;;;;;4.32;2.15;;;15.90;67.90;;;;;;10469161;28;20949;-58
2023/02/11 16:40:11;;;;;;;4.68;2.38;;;16.00;67.70;;;;;;10447807;28;20059;-58
2023/02/11 16:45:14;;;;;;;5.47;2.72;;;16.00;67.70;;;;;;10468402;28;20028;-59
2023/02/11 16:50:24;;;;;;;5.10;2.75;;;15.90;67.80;;;;;;10486532;28;20491;-56
2023/02/11 16:55:24;;;;;;;3.55;2.25;;;16.00;67.60;;;;;;10468400;28;20024;-56
2023/02/11 17:00:25;;;;;;;3.10;1.60;;;16.00;67.40;;;;;;10467712;28;20058;-58
2023/02/11 17:05:26;;;;;;;4.00;2.58;;;16.00;67.30;;;;;;10485838;28;20028;-59
2023/02/11 17:10:27;;;;;;;2.58;1.80;;;16.00;67.40;;;;;;10467333;28;20039;-58
2023/02/11 17:15:28;;;;;;;5.22;1.92;;;15.90;67.30;;;;;;10475459;28;20800;-58
2023/02/11 17:20:28;;;;;;;3.83;1.92;;;16.00;67.20;;;;;;10486842;28;20035;-56
2023/02/11 17:25:31;;;;;;;3.22;1.80;;;16.10;67.00;;;;;;10484052;28;20016;-56
2023/02/11 17:30:32;;;;;;;6.45;2.47;;;16.20;66.70;;;;;;10483786;28;20076;-55
2023/02/11 17:35:32;;;;;;;4.00;2.10;;;16.20;66.80;;;;;;10445968;28;20017;-57
2023/02/11 17:40:33;;;;;;;4.88;1.70;;;16.10;66.90;;;;;;10448814;28;20034;-57
2023/02/11 17:45:39;;;;;;;5.40;1.90;;;16.20;66.80;;;;;;10487013;28;20167;-57
2023/02/11 17:50:39;;;;;;;3.20;2.00;;;16.10;66.80;;;;;;10442524;28;20056;-57
2023/02/11 17:55:40;;;;;;;4.00;1.95;;;16.10;67.00;;;;;;10486374;28;20121;-57
2023/02/11 18:00:42;;;;;;;2.72;1.77;;;16.00;67.20;;;;;;10468724;28;20025;-57
2023/02/11 18:05:42;;;;;;;4.82;3.00;;;15.90;67.30;;;;;;10486688;28;20020;-56
2023/02/11 18:10:43;;;;;;;5.38;1.60;;;15.90;67.60;;;;;;10451808;28;20540;-57
2023/02/11 18:15:44;;;;;;;4.15;1.80;;;15.80;67.70;;;;;;10468318;28;20675;-57
2023/02/11 18:20:54;;;;;;;3.92;1.60;;;15.80;67.70;;;;;;10455025;28;20104;-56
2023/02/11 18:25:55;;;;;;;5.28;1.70;;;15.90;67.50;;;;;;10475620;28;20100;-58
2023/02/11 18:30:58;;;;;;;7.60;1.98;;;15.90;67.50;;;;;;10472721;28;20043;-56
2023/02/11 18:35:58;;;;;;;3.72;1.60;;;16.00;67.30;;;;;;10491414;28;20005;-56
2023/02/11 18:40:59;;;;;;;4.10;1.58;;;16.10;67.00;;;;;;10508137;28;20074;-56
2023/02/11 18:46:04;;;;;;;3.58;1.90;;;16.00;66.90;;;;;;10486541;28;20379;-57
2023/02/11 18:51:14;;;;;;;3.53;1.20;;;16.00;67.10;;;;;;10475402;28;20109;-57
2023/02/11 18:56:20;;;;;;;;;;;16.00;67.30;;;;;;10455796;28;20020;-57
2023/02/11 19:01:25;;;;;;;4.32;1.98;;;16.00;67.10;;;;;;10489953;28;19912;-56
2023/02/11 19:06:30;;;;;;;2.97;1.55;;;16.00;67.00;;;;;;10474742;28;20126;-57
2023/02/11 19:11:52;;;;;;;3.53;2.20;;;16.00;67.10;;;;;;10502465;28;20036;-55
2023/02/11 19:16:57;;;;;;;4.30;1.95;;;15.90;67.10;;;;;;10477280;28;20048;-53
2023/02/11 19:22:00;;;;;;;3.08;1.63;;;16.00;66.80;;;;;;10463422;28;20376;-55
2023/02/11 19:27:03;;;;;;;4.75;1.60;;;16.10;66.50;;;;;;10491671;28;20091;-60
2023/02/11 19:32:05;;;;;;;5.53;2.38;;;16.20;66.50;;;;;;10489580;28;20036;-60
2023/02/11 19:37:09;;;;;;;6.85;2.38;;;16.30;66.50;;;;;;10471714;28;20047;-60
2023/02/11 19:42:11;;;;;;;4.22;1.42;;;16.30;67.20;;;;;;10472983;28;20016;-58
2023/02/11 19:47:12;;;;;;;4.35;1.40;;;16.30;67.60;;;;;;10471318;28;20021;-59
2023/02/11 19:52:13;;;;;;;6.28;2.05;;;16.30;67.60;;;;;;10489164;28;20056;-62
2023/02/11 19:57:14;;;;;;;6.18;2.28;;;16.30;68.00;;;;;;10473177;28;20048;-58
2023/02/11 20:02:14;;;;;;;8.70;2.83;;;16.30;68.10;;;;;;10472864;28;20023;-59
2023/02/11 20:07:15;;;;;;;3.20;1.48;;;16.30;68.30;;;;;;10472580;28;20040;-57
2023/02/11 20:12:16;;;;;;;5.38;2.00;;;16.30;68.20;;;;;;10472221;28;20024;-59
2023/02/11 20:17:16;;;;;;;3.92;2.00;;;16.30;68.40;;;;;;10472003;28;20615;-58
2023/02/11 20:22:17;;;;;;;3.03;1.75;;;16.30;68.50;;;;;;10485986;28;20104;-58
2023/02/11 20:27:18;;;;;;;4.47;1.35;;;16.20;68.50;;;;;;10471841;28;20036;-59
2023/02/11 20:32:18;;;;;;;3.25;1.85;;;16.20;68.60;;;;;;10470025;28;20052;-59
2023/02/11 20:37:19;;;;;;;3.50;1.65;;;16.20;68.90;;;;;;10471153;28;20082;-60
2023/02/11 20:42:21;;;;;;;4.70;1.73;;;16.10;68.90;;;;;;10441622;28;20100;-58
2023/02/11 20:47:21;;;;;;;3.67;2.00;;;16.10;69.00;;;;;;10470667;28;20446;-56
2023/02/11 20:52:22;;;;;;;5.70;2.15;;;16.10;68.90;;;;;;10488695;28;20060;-58
2023/02/11 20:57:22;;;;;;;3.80;1.70;;;16.00;69.40;;;;;;10488901;28;20055;-60
2023/02/11 21:02:23;;;;;;;5.05;2.03;;;16.10;69.30;;;;;;10488159;28;20117;-59
2023/02/11 21:07:27;;;;;;;4.15;1.67;;;16.10;69.30;;;;;;10473652;28;20043;-59
2023/02/11 21:12:28;;;;;;;4.65;1.95;;;16.00;69.30;;;;;;10492552;28;20036;-55
2023/02/11 21:17:29;;;;;;;6.40;1.90;;;15.80;69.10;;;;;;10490642;28;20063;-55
2023/02/11 21:22:30;;;;;;;4.03;1.77;;;15.70;69.40;;;;;;10492828;28;20013;-54
2023/02/11 21:27:32;;;;;;;4.93;2.38;;;15.60;69.60;;;;;;10467474;28;20108;-56
2023/02/11 21:32:32;;;;;;;4.28;1.70;;;15.60;69.60;;;;;;10462396;28;20798;-55
2023/02/11 21:37:33;;;;;;;3.60;2.00;;;15.50;69.60;;;;;;10485387;28;20017;-56
2023/02/11 21:42:34;;;;;;;5.15;1.67;;;15.50;69.70;;;;;;10486905;28;20027;-54
2023/02/11 21:47:35;;;;;;;3.67;2.15;;;15.50;69.80;;;;;;10487421;28;20100;-54
2023/02/11 21:52:35;;;;;;;2.78;1.70;;;15.40;69.70;;;;;;10468757;28;20441;-55
2023/02/11 21:57:36;;;;;;;3.05;1.63;;;15.40;69.80;;;;;;10468296;28;20025;-54
2023/02/11 22:02:37;;;;;;;4.10;2.78;;;15.40;69.80;;;;;;10475155;28;20086;-56
2023/02/11 22:07:38;;;;;;;3.53;2.45;;;15.30;69.60;;;;;;10475333;28;20219;-55
2023/02/11 22:12:39;;;;;;;4.53;2.33;;;15.30;69.60;;;;;;10493327;28;20025;-55
2023/02/11 22:17:40;;;;;;;4.80;2.63;;;15.30;69.70;;;;;;10476628;28;20027;-55
2023/02/11 22:22:40;;;;;;;4.05;1.85;;;15.30;69.50;;;;;;10476792;28;20082;-55
2023/02/11 22:27:41;;;;;;;5.88;2.25;;;15.30;69.70;;;;;;10492742;28;20095;-58
2023/02/11 22:32:42;;;;;;;8.57;2.58;;;15.20;69.60;;;;;;10476152;28;20071;-55
2023/02/11 22:37:42;;;;;;;2.72;1.73;;;15.20;69.60;;;;;;10475999;28;20452;-56
2023/02/11 22:42:43;;;;;;;5.13;1.83;;;15.20;69.50;;;;;;10493678;28;20020;-55
2023/02/11 22:47:44;;;;;;;3.20;2.33;;;15.20;69.40;;;;;;10493855;28;20635;-55
2023/02/11 22:52:44;;;;;;;3.88;2.40;;;15.10;69.40;;;;;;10475407;28;20733;-55
2023/02/11 22:57:45;;;;;;;3.95;2.03;;;15.10;69.40;;;;;;10493352;28;20058;-55
2023/02/11 23:02:46;;;;;;;2.22;1.65;;;15.10;69.30;;;;;;10493377;28;20016;-55
2023/02/11 23:07:47;;;;;;;3.33;2.15;;;15.10;69.40;;;;;;10474972;28;20431;-54
2023/02/11 23:12:47;;;;;;;2.53;1.80;;;15.10;69.30;;;;;;10489018;28;20060;-55
2023/02/11 23:17:48;;;;;;;3.85;2.03;;;15.10;69.30;;;;;;10491307;28;20099;-57
2023/02/11 23:22:49;;;;;;;3.22;2.00;;;15.10;69.30;;;;;;10492442;28;20096;-55
2023/02/11 23:27:49;;;;;;;3.38;2.30;;;15.00;69.20;;;;;;10444517;28;20032;-53
2023/02/11 23:32:51;;;;;;;3.53;2.45;;;15.00;69.20;;;;;;10491589;28;20132;-54
2023/02/11 23:37:52;;;;;;;3.38;2.30;;;15.00;69.10;;;;;;10491869;28;20151;-54
2023/02/11 23:42:53;;;;;;;3.70;1.90;;;15.00;69.20;;;;;;10473465;28;20066;-57
2023/02/11 23:47:53;;;;;;;3.40;2.50;;;15.00;69.20;;;;;;10473308;28;20058;-55
2023/02/11 23:52:54;;;;;;;4.60;2.47;;;15.00;69.10;;;;;;10472365;28;20453;-54
2023/02/11 23:57:54;;;;;;;4.22;2.38;;;15.00;69.00;;;;;;10472881;28;20472;-54
